sensor_id;sensor_type;location;lat;lon;timestamp;temperature;humidity
71291;DHT22;59073;51.994;4.448;2022-07-29T00:02:00;17.61;64.36
71291;DHT22;59073;51.994;4.448;2022-07-29T00:04:25;17.53;64.48
71291;DHT22;59073;51.994;4.448;2022-07-29T00:06:51;17.58;64.46
71291;DHT22;59073;51.994;4.448;2022-07-29T00:09:16;17.49;64.73
71291;DHT22;59073;51.994;4.448;2022-07-29T00:11:41;17.41;64.98
71291;DHT22;59073;51.994;4.448;2022-07-29T00:14:07;17.46;65.04
71291;DHT22;59073;51.994;4.448;2022-07-29T00:16:33;17.43;64.90
71291;DHT22;59073;51.994;4.448;2022-07-29T00:18:58;17.45;64.60
71291;DHT22;59073;51.994;4.448;2022-07-29T00:21:24;17.49;65.10
71291;DHT22;59073;51.994;4.448;2022-07-29T00:23:50;17.48;64.80
71291;DHT22;59073;51.994;4.448;2022-07-29T00:26:15;17.49;64.62
71291;DHT22;59073;51.994;4.448;2022-07-29T00:28:41;17.52;65.47
71291;DHT22;59073;51.994;4.448;2022-07-29T00:31:06;17.35;65.34
71291;DHT22;59073;51.994;4.448;2022-07-29T00:33:33;17.38;65.50
71291;DHT22;59073;51.994;4.448;2022-07-29T00:35:58;17.32;65.31
71291;DHT22;59073;51.994;4.448;2022-07-29T00:38:24;17.41;65.32
71291;DHT22;59073;51.994;4.448;2022-07-29T00:40:49;17.41;65.25
71291;DHT22;59073;51.994;4.448;2022-07-29T00:43:17;17.36;65.32
71291;DHT22;59073;51.994;4.448;2022-07-29T00:45:43;17.32;65.52
71291;DHT22;59073;51.994;4.448;2022-07-29T00:48:09;17.39;66.01
71291;DHT22;59073;51.994;4.448;2022-07-29T00:50:36;17.42;65.13
71291;DHT22;59073;51.994;4.448;2022-07-29T00:53:05;17.38;66.07
71291;DHT22;59073;51.994;4.448;2022-07-29T00:55:31;17.38;65.42
71291;DHT22;59073;51.994;4.448;2022-07-29T00:57:58;17.18;66.44
71291;DHT22;59073;51.994;4.448;2022-07-29T01:00:25;17.30;66.19
71291;DHT22;59073;51.994;4.448;2022-07-29T01:02:51;17.22;65.83
71291;DHT22;59073;51.994;4.448;2022-07-29T01:05:19;17.18;66.76
71291;DHT22;59073;51.994;4.448;2022-07-29T01:07:47;17.25;66.45
71291;DHT22;59073;51.994;4.448;2022-07-29T01:10:15;17.18;66.68
71291;DHT22;59073;51.994;4.448;2022-07-29T01:12:44;17.14;66.94
71291;DHT22;59073;51.994;4.448;2022-07-29T01:15:12;17.17;67.05
71291;DHT22;59073;51.994;4.448;2022-07-29T01:18:03;17.17;67.21
71291;DHT22;59073;51.994;4.448;2022-07-29T01:24:05;17.11;67.34
71291;DHT22;59073;51.994;4.448;2022-07-29T01:29:48;17.10;67.76
71291;DHT22;59073;51.994;4.448;2022-07-29T01:32:19;17.12;67.53
71291;DHT22;59073;51.994;4.448;2022-07-29T01:35:21;17.18;67.41
71291;DHT22;59073;51.994;4.448;2022-07-29T01:37:55;17.20;67.02
71291;DHT22;59073;51.994;4.448;2022-07-29T01:40:36;17.03;67.55
71291;DHT22;59073;51.994;4.448;2022-07-29T01:43:13;17.01;67.71
71291;DHT22;59073;51.994;4.448;2022-07-29T01:45:58;17.04;67.98
71291;DHT22;59073;51.994;4.448;2022-07-29T01:48:42;16.88;68.27
71291;DHT22;59073;51.994;4.448;2022-07-29T01:51:21;16.85;68.44
71291;DHT22;59073;51.994;4.448;2022-07-29T01:54:07;16.87;67.99
71291;DHT22;59073;51.994;4.448;2022-07-29T01:56:36;16.71;68.95
71291;DHT22;59073;51.994;4.448;2022-07-29T01:59:05;16.79;69.20
71291;DHT22;59073;51.994;4.448;2022-07-29T02:01:33;16.76;68.87
71291;DHT22;59073;51.994;4.448;2022-07-29T02:04:04;16.80;68.64
71291;DHT22;59073;51.994;4.448;2022-07-29T02:06:33;16.88;68.29
71291;DHT22;59073;51.994;4.448;2022-07-29T02:09:02;16.71;69.29
71291;DHT22;59073;51.994;4.448;2022-07-29T02:11:31;16.70;69.12
71291;DHT22;59073;51.994;4.448;2022-07-29T02:14:00;16.80;68.82
71291;DHT22;59073;51.994;4.448;2022-07-29T02:16:29;16.83;68.69
71291;DHT22;59073;51.994;4.448;2022-07-29T02:18:57;16.90;68.63
71291;DHT22;59073;51.994;4.448;2022-07-29T02:21:25;16.69;69.93
71291;DHT22;59073;51.994;4.448;2022-07-29T02:23:52;16.73;68.63
71291;DHT22;59073;51.994;4.448;2022-07-29T02:26:20;16.60;69.27
71291;DHT22;59073;51.994;4.448;2022-07-29T02:28:50;16.76;68.66
71291;DHT22;59073;51.994;4.448;2022-07-29T02:31:20;16.76;68.69
71291;DHT22;59073;51.994;4.448;2022-07-29T02:33:48;16.74;68.57
71291;DHT22;59073;51.994;4.448;2022-07-29T02:36:15;16.64;69.54
71291;DHT22;59073;51.994;4.448;2022-07-29T02:38:43;16.70;69.11
71291;DHT22;59073;51.994;4.448;2022-07-29T02:41:27;16.67;68.89
71291;DHT22;59073;51.994;4.448;2022-07-29T02:44:06;16.45;69.47
71291;DHT22;59073;51.994;4.448;2022-07-29T02:46:36;16.53;69.23
71291;DHT22;59073;51.994;4.448;2022-07-29T02:49:15;16.57;68.84
71291;DHT22;59073;51.994;4.448;2022-07-29T02:51:46;16.74;68.45
71291;DHT22;59073;51.994;4.448;2022-07-29T02:54:26;16.73;68.77
71291;DHT22;59073;51.994;4.448;2022-07-29T02:57:00;16.63;68.70
71291;DHT22;59073;51.994;4.448;2022-07-29T02:59:27;16.67;68.68
71291;DHT22;59073;51.994;4.448;2022-07-29T03:01:57;16.70;68.70
71291;DHT22;59073;51.994;4.448;2022-07-29T03:04:26;16.60;68.96
71291;DHT22;59073;51.994;4.448;2022-07-29T03:06:53;16.49;69.33
71291;DHT22;59073;51.994;4.448;2022-07-29T03:09:20;16.53;69.02
71291;DHT22;59073;51.994;4.448;2022-07-29T03:11:47;16.50;69.33
71291;DHT22;59073;51.994;4.448;2022-07-29T03:14:13;16.52;69.36
71291;DHT22;59073;51.994;4.448;2022-07-29T03:16:40;16.39;69.29
71291;DHT22;59073;51.994;4.448;2022-07-29T03:19:06;16.39;69.62
71291;DHT22;59073;51.994;4.448;2022-07-29T03:21:32;16.36;69.59
71291;DHT22;59073;51.994;4.448;2022-07-29T03:23:58;16.40;69.74
71291;DHT22;59073;51.994;4.448;2022-07-29T03:26:24;16.33;69.56
71291;DHT22;59073;51.994;4.448;2022-07-29T03:28:49;16.32;69.61
71291;DHT22;59073;51.994;4.448;2022-07-29T03:31:14;16.40;69.60
71291;DHT22;59073;51.994;4.448;2022-07-29T03:33:40;16.46;68.94
71291;DHT22;59073;51.994;4.448;2022-07-29T03:36:05;16.32;69.62
71291;DHT22;59073;51.994;4.448;2022-07-29T03:38:34;16.42;69.33
71291;DHT22;59073;51.994;4.448;2022-07-29T03:41:05;16.48;69.12
71291;DHT22;59073;51.994;4.448;2022-07-29T03:43:37;16.53;68.91
71291;DHT22;59073;51.994;4.448;2022-07-29T03:46:06;16.50;68.89
71291;DHT22;59073;51.994;4.448;2022-07-29T03:48:35;16.39;69.58
71291;DHT22;59073;51.994;4.448;2022-07-29T03:51:02;16.36;69.28
71291;DHT22;59073;51.994;4.448;2022-07-29T03:53:28;16.32;69.41
71291;DHT22;59073;51.994;4.448;2022-07-29T03:55:59;16.23;70.06
71291;DHT22;59073;51.994;4.448;2022-07-29T03:58:27;16.26;69.53
71291;DHT22;59073;51.994;4.448;2022-07-29T04:00:54;16.23;70.12
71291;DHT22;59073;51.994;4.448;2022-07-29T04:03:20;16.39;69.32
71291;DHT22;59073;51.994;4.448;2022-07-29T04:06:01;16.48;69.08
71291;DHT22;59073;51.994;4.448;2022-07-29T04:08:26;16.38;68.94
71291;DHT22;59073;51.994;4.448;2022-07-29T04:10:52;16.30;69.51
71291;DHT22;59073;51.994;4.448;2022-07-29T04:13:19;16.15;69.67
71291;DHT22;59073;51.994;4.448;2022-07-29T04:15:45;16.22;69.82
71291;DHT22;59073;51.994;4.448;2022-07-29T04:18:10;16.11;69.66
71291;DHT22;59073;51.994;4.448;2022-07-29T04:20:35;16.34;69.51
71291;DHT22;59073;51.994;4.448;2022-07-29T04:23:01;16.26;69.37
71291;DHT22;59073;51.994;4.448;2022-07-29T04:25:26;16.25;69.85
71291;DHT22;59073;51.994;4.448;2022-07-29T04:27:52;16.19;69.41
71291;DHT22;59073;51.994;4.448;2022-07-29T04:30:27;16.25;69.95
71291;DHT22;59073;51.994;4.448;2022-07-29T04:32:52;16.23;69.57
71291;DHT22;59073;51.994;4.448;2022-07-29T04:35:19;16.25;69.55
71291;DHT22;59073;51.994;4.448;2022-07-29T04:37:44;16.36;69.48
71291;DHT22;59073;51.994;4.448;2022-07-29T04:40:10;16.38;68.75
71291;DHT22;59073;51.994;4.448;2022-07-29T04:42:36;16.53;68.89
71291;DHT22;59073;51.994;4.448;2022-07-29T04:45:01;16.53;68.54
71291;DHT22;59073;51.994;4.448;2022-07-29T04:47:27;16.30;69.59
71291;DHT22;59073;51.994;4.448;2022-07-29T04:49:52;16.33;69.14
71291;DHT22;59073;51.994;4.448;2022-07-29T04:52:17;16.38;68.72
71291;DHT22;59073;51.994;4.448;2022-07-29T04:54:43;16.50;68.08
71291;DHT22;59073;51.994;4.448;2022-07-29T04:57:08;16.66;67.55
71291;DHT22;59073;51.994;4.448;2022-07-29T04:59:33;16.84;67.34
71291;DHT22;59073;51.994;4.448;2022-07-29T05:01:59;16.85;67.10
71291;DHT22;59073;51.994;4.448;2022-07-29T05:04:24;17.00;66.86
71291;DHT22;59073;51.994;4.448;2022-07-29T05:06:50;17.27;66.19
71291;DHT22;59073;51.994;4.448;2022-07-29T05:09:15;18.07;63.52
71291;DHT22;59073;51.994;4.448;2022-07-29T05:11:40;18.91;60.85
71291;DHT22;59073;51.994;4.448;2022-07-29T05:14:06;19.06;60.73
71291;DHT22;59073;51.994;4.448;2022-07-29T05:16:31;19.12;60.10
71291;DHT22;59073;51.994;4.448;2022-07-29T05:18:57;19.73;58.94
71291;DHT22;59073;51.994;4.448;2022-07-29T05:21:22;20.33;56.16
71291;DHT22;59073;51.994;4.448;2022-07-29T05:23:48;20.48;56.52
71291;DHT22;59073;51.994;4.448;2022-07-29T05:26:13;21.14;54.62
71291;DHT22;59073;51.994;4.448;2022-07-29T05:28:38;21.45;53.63
71291;DHT22;59073;51.994;4.448;2022-07-29T05:31:04;22.19;51.62
71291;DHT22;59073;51.994;4.448;2022-07-29T05:33:29;21.64;53.54
71291;DHT22;59073;51.994;4.448;2022-07-29T05:35:55;21.61;52.85
71291;DHT22;59073;51.994;4.448;2022-07-29T05:38:20;21.71;52.93
71291;DHT22;59073;51.994;4.448;2022-07-29T05:40:46;21.62;52.74
71291;DHT22;59073;51.994;4.448;2022-07-29T05:43:11;21.74;51.58
71291;DHT22;59073;51.994;4.448;2022-07-29T05:45:38;21.07;54.05
71291;DHT22;59073;51.994;4.448;2022-07-29T05:48:04;19.61;57.24
71291;DHT22;59073;51.994;4.448;2022-07-29T05:50:29;18.94;60.36
71291;DHT22;59073;51.994;4.448;2022-07-29T05:52:55;19.67;57.81
71291;DHT22;59073;51.994;4.448;2022-07-29T05:55:20;20.08;57.02
71291;DHT22;59073;51.994;4.448;2022-07-29T05:57:47;20.96;54.18
71291;DHT22;59073;51.994;4.448;2022-07-29T06:00:12;21.37;52.75
71291;DHT22;59073;51.994;4.448;2022-07-29T06:02:38;21.26;52.69
71291;DHT22;59073;51.994;4.448;2022-07-29T06:05:03;20.55;55.36
71291;DHT22;59073;51.994;4.448;2022-07-29T06:07:29;19.78;56.70
71291;DHT22;59073;51.994;4.448;2022-07-29T06:09:55;20.36;55.99
71291;DHT22;59073;51.994;4.448;2022-07-29T06:12:21;21.54;52.80
71291;DHT22;59073;51.994;4.448;2022-07-29T06:14:46;22.20;50.42
71291;DHT22;59073;51.994;4.448;2022-07-29T06:17:11;22.59;50.03
71291;DHT22;59073;51.994;4.448;2022-07-29T06:19:37;21.55;51.87
71291;DHT22;59073;51.994;4.448;2022-07-29T06:22:03;20.45;55.13
71291;DHT22;59073;51.994;4.448;2022-07-29T06:24:29;20.39;55.00
71291;DHT22;59073;51.994;4.448;2022-07-29T06:26:54;20.28;56.44
71291;DHT22;59073;51.994;4.448;2022-07-29T06:29:19;20.12;56.89
71291;DHT22;59073;51.994;4.448;2022-07-29T06:31:45;19.87;57.33
71291;DHT22;59073;51.994;4.448;2022-07-29T06:34:10;19.75;58.24
71291;DHT22;59073;51.994;4.448;2022-07-29T06:36:36;20.56;55.94
71291;DHT22;59073;51.994;4.448;2022-07-29T06:39:08;22.54;51.64
71291;DHT22;59073;51.994;4.448;2022-07-29T06:41:34;23.83;48.13
71291;DHT22;59073;51.994;4.448;2022-07-29T06:44:00;24.16;46.98
71291;DHT22;59073;51.994;4.448;2022-07-29T06:46:26;24.41;45.08
71291;DHT22;59073;51.994;4.448;2022-07-29T06:48:52;24.42;46.90
71291;DHT22;59073;51.994;4.448;2022-07-29T06:51:19;23.67;47.69
71291;DHT22;59073;51.994;4.448;2022-07-29T06:53:44;23.10;48.99
71291;DHT22;59073;51.994;4.448;2022-07-29T06:56:09;22.37;50.39
71291;DHT22;59073;51.994;4.448;2022-07-29T06:58:35;21.52;53.06
71291;DHT22;59073;51.994;4.448;2022-07-29T07:01:04;21.27;54.24
71291;DHT22;59073;51.994;4.448;2022-07-29T07:03:30;21.64;53.26
71291;DHT22;59073;51.994;4.448;2022-07-29T07:05:56;21.89;53.12
71291;DHT22;59073;51.994;4.448;2022-07-29T07:08:22;21.44;54.24
71291;DHT22;59073;51.994;4.448;2022-07-29T07:10:49;20.68;55.31
71291;DHT22;59073;51.994;4.448;2022-07-29T07:13:15;21.00;55.35
71291;DHT22;59073;51.994;4.448;2022-07-29T07:15:43;21.11;53.93
71291;DHT22;59073;51.994;4.448;2022-07-29T07:18:09;21.21;55.48
71291;DHT22;59073;51.994;4.448;2022-07-29T07:20:36;20.99;54.64
71291;DHT22;59073;51.994;4.448;2022-07-29T07:23:01;21.03;55.43
71291;DHT22;59073;51.994;4.448;2022-07-29T07:25:27;20.66;55.72
71291;DHT22;59073;51.994;4.448;2022-07-29T07:27:52;20.76;55.33
71291;DHT22;59073;51.994;4.448;2022-07-29T07:30:18;20.51;55.15
71291;DHT22;59073;51.994;4.448;2022-07-29T07:32:43;20.45;57.18
71291;DHT22;59073;51.994;4.448;2022-07-29T07:35:10;20.52;56.57
71291;DHT22;59073;51.994;4.448;2022-07-29T07:37:36;21.03;54.53
71291;DHT22;59073;51.994;4.448;2022-07-29T07:40:03;21.19;54.06
71291;DHT22;59073;51.994;4.448;2022-07-29T07:42:29;21.34;53.73
71291;DHT22;59073;51.994;4.448;2022-07-29T07:44:54;21.66;53.77
71291;DHT22;59073;51.994;4.448;2022-07-29T07:47:20;22.28;52.95
71291;DHT22;59073;51.994;4.448;2022-07-29T07:49:49;22.03;53.14
71291;DHT22;59073;51.994;4.448;2022-07-29T07:52:16;21.86;52.47
71291;DHT22;59073;51.994;4.448;2022-07-29T07:54:42;21.89;53.63
71291;DHT22;59073;51.994;4.448;2022-07-29T07:57:09;21.50;54.16
71291;DHT22;59073;51.994;4.448;2022-07-29T07:59:34;21.50;54.23
71291;DHT22;59073;51.994;4.448;2022-07-29T08:02:00;21.31;55.16
71291;DHT22;59073;51.994;4.448;2022-07-29T08:04:26;21.44;55.01
71291;DHT22;59073;51.994;4.448;2022-07-29T08:06:53;22.23;53.03
71291;DHT22;59073;51.994;4.448;2022-07-29T08:09:23;22.40;52.71
71291;DHT22;59073;51.994;4.448;2022-07-29T08:11:48;22.53;51.88
71291;DHT22;59073;51.994;4.448;2022-07-29T08:14:14;23.19;50.41
71291;DHT22;59073;51.994;4.448;2022-07-29T08:16:40;22.95;50.79
71291;DHT22;59073;51.994;4.448;2022-07-29T08:19:07;23.08;51.41
71291;DHT22;59073;51.994;4.448;2022-07-29T08:21:32;23.12;49.41
71291;DHT22;59073;51.994;4.448;2022-07-29T08:23:57;23.15;52.08
71291;DHT22;59073;51.994;4.448;2022-07-29T08:26:43;23.23;50.53
71291;DHT22;59073;51.994;4.448;2022-07-29T08:29:09;23.92;49.66
71291;DHT22;59073;51.994;4.448;2022-07-29T08:31:35;23.07;50.00
71291;DHT22;59073;51.994;4.448;2022-07-29T08:34:02;23.05;50.96
71291;DHT22;59073;51.994;4.448;2022-07-29T08:36:27;23.25;53.48
71291;DHT22;59073;51.994;4.448;2022-07-29T08:38:53;23.42;52.33
71291;DHT22;59073;51.994;4.448;2022-07-29T08:41:19;23.63;50.65
71291;DHT22;59073;51.994;4.448;2022-07-29T08:43:46;23.77;52.01
71291;DHT22;59073;51.994;4.448;2022-07-29T08:46:11;24.01;50.47
71291;DHT22;59073;51.994;4.448;2022-07-29T08:48:38;23.93;48.77
71291;DHT22;59073;51.994;4.448;2022-07-29T08:51:07;24.11;51.27
71291;DHT22;59073;51.994;4.448;2022-07-29T08:53:33;24.06;49.74
71291;DHT22;59073;51.994;4.448;2022-07-29T08:55:59;23.63;50.43
71291;DHT22;59073;51.994;4.448;2022-07-29T08:58:27;24.17;50.35
71291;DHT22;59073;51.994;4.448;2022-07-29T09:00:56;24.78;50.10
71291;DHT22;59073;51.994;4.448;2022-07-29T09:03:30;25.15;48.34
71291;DHT22;59073;51.994;4.448;2022-07-29T09:05:56;24.79;50.14
71291;DHT22;59073;51.994;4.448;2022-07-29T09:08:22;24.76;49.16
71291;DHT22;59073;51.994;4.448;2022-07-29T09:10:48;24.35;49.81
71291;DHT22;59073;51.994;4.448;2022-07-29T09:13:14;24.38;50.07
71291;DHT22;59073;51.994;4.448;2022-07-29T09:15:40;25.06;48.68
71291;DHT22;59073;51.994;4.448;2022-07-29T09:18:05;24.88;46.93
71291;DHT22;59073;51.994;4.448;2022-07-29T09:20:31;25.32;47.57
71291;DHT22;59073;51.994;4.448;2022-07-29T09:23:15;24.92;47.92
71291;DHT22;59073;51.994;4.448;2022-07-29T09:25:41;24.98;47.12
71291;DHT22;59073;51.994;4.448;2022-07-29T09:30:32;24.67;47.37
71291;DHT22;59073;51.994;4.448;2022-07-29T09:33:00;24.89;49.25
71291;DHT22;59073;51.994;4.448;2022-07-29T09:35:27;25.02;48.69
71291;DHT22;59073;51.994;4.448;2022-07-29T09:37:53;25.12;50.03
71291;DHT22;59073;51.994;4.448;2022-07-29T09:40:27;24.86;48.35
71291;DHT22;59073;51.994;4.448;2022-07-29T09:42:54;24.60;51.56
71291;DHT22;59073;51.994;4.448;2022-07-29T09:45:33;25.06;47.97
71291;DHT22;59073;51.994;4.448;2022-07-29T09:48:13;25.70;47.19
71291;DHT22;59073;51.994;4.448;2022-07-29T09:50:40;25.05;47.04
71291;DHT22;59073;51.994;4.448;2022-07-29T09:53:07;24.78;51.54
71291;DHT22;59073;51.994;4.448;2022-07-29T09:55:46;25.10;49.19
71291;DHT22;59073;51.994;4.448;2022-07-29T09:58:20;24.72;48.38
71291;DHT22;59073;51.994;4.448;2022-07-29T10:00:48;24.96;47.64
71291;DHT22;59073;51.994;4.448;2022-07-29T10:03:16;24.96;48.25
71291;DHT22;59073;51.994;4.448;2022-07-29T10:05:43;25.43;48.17
71291;DHT22;59073;51.994;4.448;2022-07-29T10:08:10;24.85;49.62
71291;DHT22;59073;51.994;4.448;2022-07-29T10:10:40;25.34;48.62
71291;DHT22;59073;51.994;4.448;2022-07-29T10:13:11;25.09;47.78
71291;DHT22;59073;51.994;4.448;2022-07-29T10:15:42;25.30;47.84
71291;DHT22;59073;51.994;4.448;2022-07-29T10:18:11;24.76;50.83
71291;DHT22;59073;51.994;4.448;2022-07-29T10:20:38;25.24;48.95
71291;DHT22;59073;51.994;4.448;2022-07-29T10:23:04;25.53;49.39
71291;DHT22;59073;51.994;4.448;2022-07-29T10:25:31;25.60;49.21
71291;DHT22;59073;51.994;4.448;2022-07-29T10:27:56;25.47;48.06
71291;DHT22;59073;51.994;4.448;2022-07-29T10:30:24;25.43;49.96
71291;DHT22;59073;51.994;4.448;2022-07-29T10:39:12;26.39;45.86
71291;DHT22;59073;51.994;4.448;2022-07-29T10:41:55;25.87;44.30
71291;DHT22;59073;51.994;4.448;2022-07-29T10:44:23;25.54;47.15
71291;DHT22;59073;51.994;4.448;2022-07-29T10:46:51;25.22;46.52
71291;DHT22;59073;51.994;4.448;2022-07-29T10:57:27;26.01;47.93
71291;DHT22;59073;51.994;4.448;2022-07-29T11:05:11;26.51;43.20
71291;DHT22;59073;51.994;4.448;2022-07-29T11:07:38;26.36;43.46
71291;DHT22;59073;51.994;4.448;2022-07-29T11:15:09;25.84;42.61
71291;DHT22;59073;51.994;4.448;2022-07-29T11:23:21;26.89;43.20
71291;DHT22;59073;51.994;4.448;2022-07-29T11:29:03;26.59;38.97
71291;DHT22;59073;51.994;4.448;2022-07-29T11:34:21;25.44;40.70
71291;DHT22;59073;51.994;4.448;2022-07-29T11:39:41;25.71;39.24
71291;DHT22;59073;51.994;4.448;2022-07-29T11:42:37;25.37;40.50
71291;DHT22;59073;51.994;4.448;2022-07-29T11:45:07;26.15;40.25
71291;DHT22;59073;51.994;4.448;2022-07-29T11:50:14;25.66;41.61
71291;DHT22;59073;51.994;4.448;2022-07-29T11:52:46;26.56;41.65
71291;DHT22;59073;51.994;4.448;2022-07-29T11:55:15;27.06;39.44
71291;DHT22;59073;51.994;4.448;2022-07-29T11:57:56;26.75;40.14
71291;DHT22;59073;51.994;4.448;2022-07-29T12:03:00;27.15;41.91
71291;DHT22;59073;51.994;4.448;2022-07-29T12:05:40;27.31;42.18
71291;DHT22;59073;51.994;4.448;2022-07-29T12:08:17;26.51;43.72
71291;DHT22;59073;51.994;4.448;2022-07-29T12:10:49;26.00;45.30
71291;DHT22;59073;51.994;4.448;2022-07-29T12:13:18;26.46;43.68
71291;DHT22;59073;51.994;4.448;2022-07-29T12:15:55;27.35;43.94
71291;DHT22;59073;51.994;4.448;2022-07-29T12:18:22;28.13;40.20
71291;DHT22;59073;51.994;4.448;2022-07-29T12:20:48;26.42;43.10
71291;DHT22;59073;51.994;4.448;2022-07-29T12:23:15;25.50;47.88
71291;DHT22;59073;51.994;4.448;2022-07-29T12:25:43;25.69;45.06
71291;DHT22;59073;51.994;4.448;2022-07-29T12:28:11;25.74;46.56
71291;DHT22;59073;51.994;4.448;2022-07-29T12:30:47;25.39;46.64
71291;DHT22;59073;51.994;4.448;2022-07-29T12:33:17;25.12;48.37
71291;DHT22;59073;51.994;4.448;2022-07-29T12:35:48;24.82;46.41
71291;DHT22;59073;51.994;4.448;2022-07-29T12:38:14;24.75;48.26
71291;DHT22;59073;51.994;4.448;2022-07-29T12:40:40;25.10;48.11
71291;DHT22;59073;51.994;4.448;2022-07-29T12:45:40;25.98;46.76
71291;DHT22;59073;51.994;4.448;2022-07-29T12:48:06;26.08;44.82
71291;DHT22;59073;51.994;4.448;2022-07-29T12:50:35;25.66;45.56
71291;DHT22;59073;51.994;4.448;2022-07-29T12:53:13;25.98;43.74
71291;DHT22;59073;51.994;4.448;2022-07-29T12:55:41;26.43;44.73
71291;DHT22;59073;51.994;4.448;2022-07-29T12:58:07;26.64;44.51
71291;DHT22;59073;51.994;4.448;2022-07-29T13:00:32;26.93;42.95
71291;DHT22;59073;51.994;4.448;2022-07-29T13:02:59;26.78;41.39
71291;DHT22;59073;51.994;4.448;2022-07-29T13:05:40;26.55;43.76
71291;DHT22;59073;51.994;4.448;2022-07-29T13:08:15;26.97;45.03
71291;DHT22;59073;51.994;4.448;2022-07-29T13:10:41;27.03;41.09
71291;DHT22;59073;51.994;4.448;2022-07-29T13:13:09;26.72;43.38
71291;DHT22;59073;51.994;4.448;2022-07-29T13:15:41;26.57;44.19
71291;DHT22;59073;51.994;4.448;2022-07-29T13:18:30;26.84;44.77
71291;DHT22;59073;51.994;4.448;2022-07-29T13:20:56;27.13;44.03
71291;DHT22;59073;51.994;4.448;2022-07-29T13:23:22;26.48;40.94
71291;DHT22;59073;51.994;4.448;2022-07-29T13:25:48;25.75;42.40
71291;DHT22;59073;51.994;4.448;2022-07-29T13:28:14;25.51;45.18
71291;DHT22;59073;51.994;4.448;2022-07-29T13:30:40;25.23;45.80
71291;DHT22;59073;51.994;4.448;2022-07-29T13:33:06;25.23;45.80
71291;DHT22;59073;51.994;4.448;2022-07-29T13:35:31;24.73;46.02
71291;DHT22;59073;51.994;4.448;2022-07-29T13:37:57;25.29;47.73
71291;DHT22;59073;51.994;4.448;2022-07-29T13:40:23;25.47;45.26
71291;DHT22;59073;51.994;4.448;2022-07-29T13:42:49;25.75;43.89
71291;DHT22;59073;51.994;4.448;2022-07-29T13:45:15;25.71;46.65
71291;DHT22;59073;51.994;4.448;2022-07-29T13:47:40;25.22;45.34
71291;DHT22;59073;51.994;4.448;2022-07-29T13:50:08;24.79;46.40
71291;DHT22;59073;51.994;4.448;2022-07-29T13:52:35;25.15;45.81
71291;DHT22;59073;51.994;4.448;2022-07-29T13:55:02;25.03;45.50
71291;DHT22;59073;51.994;4.448;2022-07-29T13:57:28;24.85;46.70
71291;DHT22;59073;51.994;4.448;2022-07-29T13:59:54;24.72;46.16
71291;DHT22;59073;51.994;4.448;2022-07-29T14:02:20;24.38;45.95
71291;DHT22;59073;51.994;4.448;2022-07-29T14:04:46;24.50;47.79
71291;DHT22;59073;51.994;4.448;2022-07-29T14:07:12;24.75;47.11
71291;DHT22;59073;51.994;4.448;2022-07-29T14:09:38;24.75;46.68
71291;DHT22;59073;51.994;4.448;2022-07-29T14:12:03;24.72;47.03
71291;DHT22;59073;51.994;4.448;2022-07-29T14:14:29;24.62;47.39
71291;DHT22;59073;51.994;4.448;2022-07-29T14:16:56;24.55;48.14
71291;DHT22;59073;51.994;4.448;2022-07-29T14:19:22;24.68;49.15
71291;DHT22;59073;51.994;4.448;2022-07-29T14:21:47;24.31;46.86
71291;DHT22;59073;51.994;4.448;2022-07-29T14:24:13;24.48;46.08
71291;DHT22;59073;51.994;4.448;2022-07-29T14:26:39;24.45;48.95
71291;DHT22;59073;51.994;4.448;2022-07-29T14:29:04;24.42;47.63
71291;DHT22;59073;51.994;4.448;2022-07-29T14:31:30;24.41;46.87
71291;DHT22;59073;51.994;4.448;2022-07-29T14:33:55;24.32;48.34
71291;DHT22;59073;51.994;4.448;2022-07-29T14:36:21;24.86;48.13
71291;DHT22;59073;51.994;4.448;2022-07-29T14:38:46;24.54;47.61
71291;DHT22;59073;51.994;4.448;2022-07-29T14:41:12;24.50;47.48
71291;DHT22;59073;51.994;4.448;2022-07-29T14:43:37;24.17;46.91
71291;DHT22;59073;51.994;4.448;2022-07-29T14:46:03;24.20;47.97
71291;DHT22;59073;51.994;4.448;2022-07-29T14:48:29;24.31;49.32
71291;DHT22;59073;51.994;4.448;2022-07-29T14:50:54;24.24;48.86
71291;DHT22;59073;51.994;4.448;2022-07-29T14:53:21;24.00;48.25
71291;DHT22;59073;51.994;4.448;2022-07-29T14:55:47;24.11;47.53
71291;DHT22;59073;51.994;4.448;2022-07-29T14:58:12;24.20;49.44
71291;DHT22;59073;51.994;4.448;2022-07-29T15:00:39;24.21;48.67
71291;DHT22;59073;51.994;4.448;2022-07-29T15:03:05;24.34;48.32
71291;DHT22;59073;51.994;4.448;2022-07-29T15:05:31;24.14;47.42
71291;DHT22;59073;51.994;4.448;2022-07-29T15:07:58;24.40;46.85
71291;DHT22;59073;51.994;4.448;2022-07-29T15:10:24;24.34;47.66
71291;DHT22;59073;51.994;4.448;2022-07-29T15:12:51;24.44;47.61
71291;DHT22;59073;51.994;4.448;2022-07-29T15:15:16;24.09;47.92
71291;DHT22;59073;51.994;4.448;2022-07-29T15:17:42;24.13;48.13
71291;DHT22;59073;51.994;4.448;2022-07-29T15:20:08;24.44;49.56
71291;DHT22;59073;51.994;4.448;2022-07-29T15:22:33;24.27;48.29
71291;DHT22;59073;51.994;4.448;2022-07-29T15:24:59;24.57;46.82
71291;DHT22;59073;51.994;4.448;2022-07-29T15:27:24;24.79;48.32
71291;DHT22;59073;51.994;4.448;2022-07-29T15:29:50;24.88;47.63
71291;DHT22;59073;51.994;4.448;2022-07-29T15:32:15;24.35;48.19
71291;DHT22;59073;51.994;4.448;2022-07-29T15:34:41;24.30;48.02
71291;DHT22;59073;51.994;4.448;2022-07-29T15:37:06;24.17;49.35
71291;DHT22;59073;51.994;4.448;2022-07-29T15:39:32;24.18;49.54
71291;DHT22;59073;51.994;4.448;2022-07-29T15:41:57;24.10;48.22
71291;DHT22;59073;51.994;4.448;2022-07-29T15:44:25;23.72;50.44
71291;DHT22;59073;51.994;4.448;2022-07-29T15:46:50;23.67;50.18
71291;DHT22;59073;51.994;4.448;2022-07-29T15:49:32;23.80;50.95
71291;DHT22;59073;51.994;4.448;2022-07-29T15:52:04;24.06;50.48
71291;DHT22;59073;51.994;4.448;2022-07-29T15:54:35;24.03;50.86
71291;DHT22;59073;51.994;4.448;2022-07-29T15:57:04;24.04;49.62
71291;DHT22;59073;51.994;4.448;2022-07-29T15:59:30;23.99;51.01
71291;DHT22;59073;51.994;4.448;2022-07-29T16:01:56;23.76;51.11
71291;DHT22;59073;51.994;4.448;2022-07-29T16:04:21;23.89;50.67
71291;DHT22;59073;51.994;4.448;2022-07-29T16:06:48;23.53;50.75
71291;DHT22;59073;51.994;4.448;2022-07-29T16:09:15;23.43;51.14
71291;DHT22;59073;51.994;4.448;2022-07-29T16:11:41;23.28;50.43
71291;DHT22;59073;51.994;4.448;2022-07-29T16:14:07;23.26;49.99
71291;DHT22;59073;51.994;4.448;2022-07-29T16:16:33;23.39;51.24
71291;DHT22;59073;51.994;4.448;2022-07-29T16:18:59;23.48;53.12
71291;DHT22;59073;51.994;4.448;2022-07-29T16:21:24;23.46;52.01
71291;DHT22;59073;51.994;4.448;2022-07-29T16:23:50;23.29;50.75
71291;DHT22;59073;51.994;4.448;2022-07-29T16:26:16;23.18;50.37
71291;DHT22;59073;51.994;4.448;2022-07-29T16:28:41;23.08;53.90
71291;DHT22;59073;51.994;4.448;2022-07-29T16:31:07;23.16;54.33